createdAt,value
2022-11-12T00:00:59.370Z,100.00
2022-11-12T00:03:27.131Z,100.00
2022-11-12T00:05:54.088Z,100.00
2022-11-12T00:08:21.135Z,100.00
2022-11-12T00:10:48.370Z,100.00
2022-11-12T00:13:15.392Z,100.00
2022-11-12T00:15:42.316Z,100.00
2022-11-12T00:18:09.318Z,100.00
2022-11-12T00:20:36.091Z,100.00
2022-11-12T00:23:02.916Z,100.00
2022-11-12T00:25:29.854Z,100.00
2022-11-12T00:28:05.680Z,100.00
2022-11-12T00:30:32.613Z,100.00
2022-11-12T00:33:02.912Z,100.00
2022-11-12T00:35:32.609Z,100.00
2022-11-12T00:38:00.596Z,100.00
2022-11-12T00:40:28.065Z,100.00
2022-11-12T00:42:54.828Z,100.00
2022-11-12T00:45:21.599Z,100.00
2022-11-12T00:47:48.970Z,100.00
2022-11-12T00:50:16.342Z,100.00
2022-11-12T00:52:43.567Z,100.00
2022-11-12T00:55:10.715Z,100.00
2022-11-12T00:57:37.534Z,100.00
2022-11-12T01:00:06.457Z,100.00
2022-11-12T01:02:38.646Z,100.00
2022-11-12T01:05:09.362Z,100.00
2022-11-12T01:07:36.146Z,100.00
2022-11-12T01:10:03.062Z,100.00
2022-11-12T01:12:32.345Z,100.00
2022-11-12T01:14:59.496Z,100.00
2022-11-12T01:17:26.280Z,100.00
2022-11-12T01:19:53.080Z,100.00
2022-11-12T01:22:19.902Z,100.00
2022-11-12T01:24:46.658Z,100.00
2022-11-12T01:27:13.428Z,100.00
2022-11-12T01:29:41.151Z,100.00
2022-11-12T01:32:08.092Z,100.00
2022-11-12T01:34:35.160Z,100.00
2022-11-12T01:37:01.884Z,100.00
2022-11-12T01:39:28.658Z,100.00
2022-11-12T01:41:55.458Z,100.00
2022-11-12T01:44:29.193Z,100.00
2022-11-12T01:46:55.884Z,100.00
2022-11-12T01:49:39.491Z,100.00
2022-11-12T01:52:15.936Z,100.00
2022-11-12T01:54:46.901Z,100.00
2022-11-12T01:57:39.348Z,100.00
2022-11-12T02:00:10.568Z,100.00
2022-11-12T02:02:38.598Z,100.00
2022-11-12T02:05:09.102Z,100.00
2022-11-12T02:07:38.942Z,100.00
2022-11-12T02:10:07.691Z,100.00
2022-11-12T02:12:53.324Z,100.00
2022-11-12T02:15:41.146Z,100.00
2022-11-12T02:18:08.775Z,100.00
2022-11-12T02:20:39.009Z,100.00
2022-11-12T02:23:08.178Z,100.00
2022-11-12T02:25:36.097Z,100.00
2022-11-12T02:28:08.317Z,100.00
2022-11-12T02:30:42.277Z,100.00
2022-11-12T02:33:09.013Z,100.00
2022-11-12T02:35:36.141Z,100.00
2022-11-12T02:38:03.575Z,100.00
2022-11-12T02:40:30.531Z,100.00
2022-11-12T02:42:57.265Z,100.00
2022-11-12T02:45:24.168Z,100.00
2022-11-12T02:47:50.924Z,100.00
2022-11-12T02:50:18.222Z,100.00
2022-11-12T02:52:44.999Z,100.00
2022-11-12T02:55:12.846Z,100.00
2022-11-12T02:57:40.146Z,100.00
2022-11-12T03:00:10.749Z,100.00
2022-11-12T03:02:42.721Z,100.00
2022-11-12T03:05:13.083Z,100.00
2022-11-12T03:07:39.904Z,100.00
2022-11-12T03:10:07.471Z,100.00
2022-11-12T03:12:34.251Z,100.00
2022-11-12T03:15:01.024Z,100.00
2022-11-12T03:17:27.779Z,100.00
2022-11-12T03:19:54.499Z,100.00
2022-11-12T03:22:21.210Z,100.00
2022-11-12T03:24:47.959Z,100.00
2022-11-12T03:27:15.188Z,100.00
2022-11-12T03:29:41.890Z,100.00
2022-11-12T03:32:09.128Z,100.00
2022-11-12T03:34:35.847Z,100.00
2022-11-12T03:37:03.126Z,100.00
2022-11-12T03:39:29.888Z,100.00
2022-11-12T03:41:56.578Z,100.00
2022-11-12T03:44:23.288Z,100.00
2022-11-12T03:46:50.036Z,100.00
2022-11-12T03:49:16.770Z,100.00
2022-11-12T03:51:43.519Z,100.00
2022-11-12T03:54:10.249Z,100.00
2022-11-12T03:56:36.988Z,100.00
2022-11-12T03:59:04.239Z,100.00
2022-11-12T04:01:31.307Z,100.00
2022-11-12T04:03:58.133Z,100.00
2022-11-12T04:06:43.737Z,100.00
2022-11-12T04:09:10.536Z,100.00
2022-11-12T04:11:37.288Z,100.00
2022-11-12T04:14:04.117Z,100.00
2022-11-12T04:16:49.471Z,100.00
2022-11-12T04:19:35.007Z,100.00
2022-11-12T04:22:07.178Z,100.00
2022-11-12T04:24:56.408Z,100.00
2022-11-12T04:27:24.574Z,100.00
2022-11-12T04:30:10.878Z,100.00
2022-11-12T04:32:39.993Z,100.00
2022-11-12T04:35:09.066Z,100.00
2022-11-12T04:37:46.375Z,100.00
2022-11-12T04:40:38.506Z,100.00
2022-11-12T04:43:25.734Z,100.00
2022-11-12T04:45:54.845Z,100.00
2022-11-12T04:48:24.464Z,100.00
2022-11-12T04:51:00.571Z,100.00
2022-11-12T04:53:28.293Z,100.00
2022-11-12T04:55:57.047Z,100.00
2022-11-12T04:58:25.189Z,100.00
2022-11-12T05:00:52.378Z,100.00
2022-11-12T05:03:19.221Z,100.00
2022-11-12T05:05:45.970Z,100.00
2022-11-12T05:08:12.689Z,100.00
2022-11-12T05:10:39.447Z,100.00
2022-11-12T05:13:06.127Z,100.00
2022-11-12T05:15:32.870Z,100.00
2022-11-12T05:17:59.757Z,100.00
2022-11-12T05:20:26.542Z,100.00
2022-11-12T05:23:06.607Z,100.00
2022-11-12T05:25:35.911Z,100.00
2022-11-12T05:28:02.958Z,100.00
2022-11-12T05:30:29.722Z,100.00
2022-11-12T05:32:56.440Z,100.00
2022-11-12T05:35:23.256Z,100.00
2022-11-12T05:37:49.984Z,100.00
2022-11-12T05:40:16.739Z,100.00
2022-11-12T05:42:45.281Z,100.00
2022-11-12T05:45:13.239Z,100.00
2022-11-12T05:47:40.080Z,100.00
2022-11-12T05:50:07.425Z,100.00
2022-11-12T05:52:34.135Z,100.00
2022-11-12T05:55:01.004Z,100.00
2022-11-12T05:57:27.997Z,100.00
2022-11-12T05:59:54.742Z,100.00
2022-11-12T06:02:21.770Z,100.00
2022-11-12T06:04:48.587Z,100.00
2022-11-12T06:07:15.362Z,100.00
2022-11-12T06:09:42.177Z,100.00
2022-11-12T06:12:09.068Z,100.00
2022-11-12T06:14:35.847Z,100.00
2022-11-12T06:17:02.595Z,100.00
2022-11-12T06:19:29.356Z,100.00
2022-11-12T06:21:56.067Z,100.00
2022-11-12T06:24:22.916Z,100.00
2022-11-12T06:26:49.805Z,100.00
2022-11-12T06:29:16.494Z,100.00
2022-11-12T06:31:43.207Z,100.00
2022-11-12T06:34:10.065Z,100.00
2022-11-12T06:36:36.922Z,100.00
2022-11-12T06:39:03.849Z,100.00
2022-11-12T06:41:30.538Z,100.00
2022-11-12T06:43:57.275Z,100.00
2022-11-12T06:46:24.067Z,100.00
2022-11-12T06:48:50.814Z,100.00
2022-11-12T06:51:20.192Z,100.00
2022-11-12T06:53:47.688Z,100.00
2022-11-12T06:56:15.042Z,100.00
2022-11-12T06:58:42.492Z,100.00
2022-11-12T07:01:14.944Z,100.00
2022-11-12T07:03:44.661Z,100.00
2022-11-12T07:06:14.546Z,100.00
2022-11-12T07:08:41.993Z,100.00
2022-11-12T07:11:09.577Z,100.00
2022-11-12T07:13:36.965Z,100.00
2022-11-12T07:16:07.069Z,100.00
2022-11-12T07:18:35.256Z,100.00
2022-11-12T07:21:05.149Z,100.00
2022-11-12T07:23:33.492Z,100.00
2022-11-12T07:26:05.296Z,100.00
2022-11-12T07:28:32.341Z,100.00
2022-11-12T07:31:01.160Z,100.00
2022-11-12T07:33:29.013Z,100.00
2022-11-12T07:36:03.732Z,100.00
2022-11-12T07:38:33.356Z,100.00
2022-11-12T07:41:08.628Z,100.00
2022-11-12T07:43:37.534Z,100.00
2022-11-12T07:46:10.304Z,100.00
2022-11-12T07:48:38.092Z,100.00
2022-11-12T07:51:16.552Z,100.00
2022-11-12T07:53:44.360Z,100.00
2022-11-12T07:56:22.258Z,100.00
2022-11-12T07:58:50.554Z,100.00
2022-11-12T08:01:29.067Z,100.00
2022-11-12T08:03:56.032Z,100.00
2022-11-12T08:06:23.777Z,100.00
2022-11-12T08:08:54.672Z,100.00
2022-11-12T08:11:21.861Z,100.00
2022-11-12T08:13:49.467Z,100.00
2022-11-12T08:16:16.667Z,100.00
2022-11-12T08:18:44.407Z,100.00
2022-11-12T08:21:13.522Z,100.00
2022-11-12T08:23:41.104Z,100.00
2022-11-12T08:26:10.963Z,100.00
2022-11-12T08:28:38.643Z,100.00
2022-11-12T08:31:08.429Z,100.00
2022-11-12T08:33:35.559Z,100.00
2022-11-12T08:36:07.218Z,100.00
2022-11-12T08:38:34.259Z,100.00
2022-11-12T08:41:09.083Z,100.00
2022-11-12T08:43:35.914Z,100.00
2022-11-12T08:46:04.216Z,100.00
2022-11-12T08:48:32.544Z,100.00
2022-11-12T08:51:01.681Z,100.00
2022-11-12T08:53:28.886Z,100.00
2022-11-12T08:55:59.495Z,100.00
2022-11-12T08:58:27.696Z,100.00
2022-11-12T09:00:55.683Z,100.00
2022-11-12T09:03:24.967Z,100.00
2022-11-12T09:05:52.278Z,100.00
2022-11-12T09:08:22.076Z,100.00
2022-11-12T09:10:49.814Z,100.00
2022-11-12T09:13:19.958Z,100.00
2022-11-12T09:15:47.341Z,100.00
2022-11-12T09:18:16.804Z,100.00
2022-11-12T09:20:43.656Z,100.00
2022-11-12T09:23:12.967Z,100.00
2022-11-12T09:25:41.347Z,100.00
2022-11-12T09:28:19.300Z,100.00
2022-11-12T09:30:48.632Z,100.00
2022-11-12T09:33:17.471Z,100.00
2022-11-12T09:35:45.749Z,100.00
2022-11-12T09:38:14.935Z,100.00
2022-11-12T09:40:53.347Z,100.00
2022-11-12T09:43:43.372Z,100.00
2022-11-12T09:46:28.898Z,100.00
2022-11-12T09:49:25.494Z,100.00
2022-11-12T09:51:57.065Z,100.00
2022-11-12T09:54:30.520Z,100.00
2022-11-12T09:56:57.405Z,100.00
2022-11-12T09:59:29.869Z,100.00
2022-11-12T10:02:23.477Z,100.00
2022-11-12T10:04:58.868Z,100.00
2022-11-12T10:07:36.441Z,100.00
2022-11-12T10:10:13.684Z,100.00
2022-11-12T10:12:43.130Z,100.00
2022-11-12T10:15:48.125Z,100.00
2022-11-12T10:18:24.791Z,100.00
2022-11-12T10:21:10.305Z,100.00
2022-11-12T10:23:43.491Z,100.00
2022-11-12T10:26:19.116Z,100.00
2022-11-12T10:28:57.607Z,100.00
2022-11-12T10:31:24.447Z,100.00
2022-11-12T10:33:51.204Z,100.00
2022-11-12T10:36:20.571Z,100.00
2022-11-12T10:38:49.921Z,100.00
2022-11-12T10:41:22.525Z,100.00
2022-11-12T10:43:55.299Z,100.00
2022-11-12T10:46:24.957Z,100.00
2022-11-12T10:48:58.226Z,100.00
2022-11-12T10:51:55.235Z,100.00
2022-11-12T10:54:27.979Z,100.00
2022-11-12T10:56:55.597Z,100.00
2022-11-12T10:59:26.155Z,100.00
2022-11-12T11:01:59.043Z,100.00
2022-11-12T11:04:32.677Z,100.00
2022-11-12T11:07:26.452Z,100.00
2022-11-12T11:10:00.388Z,100.00
2022-11-12T11:12:33.320Z,100.00
2022-11-12T11:15:23.028Z,100.00
2022-11-12T11:17:49.984Z,100.00
2022-11-12T11:20:25.972Z,100.00
2022-11-12T11:23:11.439Z,100.00
2022-11-12T11:25:39.660Z,100.00
2022-11-12T11:28:29.969Z,100.00
2022-11-12T11:31:06.959Z,100.00
2022-11-12T11:33:39.715Z,100.00
2022-11-12T11:36:11.860Z,100.00
2022-11-12T11:38:39.613Z,100.00
2022-11-12T11:41:30.383Z,100.00
2022-11-12T11:44:42.743Z,100.00
2022-11-12T11:47:18.432Z,100.00
2022-11-12T11:49:55.173Z,100.00
2022-11-12T11:52:33.745Z,100.00
2022-11-12T11:55:06.634Z,100.00
2022-11-12T11:58:11.011Z,100.00
2022-11-12T12:01:13.440Z,100.00
2022-11-12T12:03:40.027Z,100.00
2022-11-12T12:06:22.130Z,100.00
2022-11-12T12:09:28.754Z,100.00
2022-11-12T12:11:59.519Z,100.00
2022-11-12T12:14:35.111Z,100.00
2022-11-12T12:17:21.909Z,100.00
2022-11-12T12:20:02.895Z,100.00
2022-11-12T12:22:49.284Z,100.00
2022-11-12T12:25:23.480Z,100.00
2022-11-12T12:28:16.182Z,100.00
2022-11-12T12:30:47.819Z,100.00
2022-11-12T12:33:28.015Z,100.00
2022-11-12T12:36:01.372Z,100.00
2022-11-12T12:38:52.864Z,100.00
2022-11-12T12:41:30.246Z,100.00
2022-11-12T12:44:02.616Z,100.00
2022-11-12T12:46:36.407Z,100.00
2022-11-12T12:49:06.265Z,100.00
2022-11-12T12:51:34.581Z,100.00
2022-11-12T12:54:01.337Z,100.00
2022-11-12T12:56:30.813Z,100.00
2022-11-12T12:59:03.503Z,100.00
2022-11-12T13:01:34.250Z,100.00
2022-11-12T13:04:05.214Z,100.00
2022-11-12T13:06:38.392Z,100.00
2022-11-12T13:09:24.344Z,100.00
2022-11-12T13:12:05.333Z,100.00
2022-11-12T13:14:34.894Z,100.00
2022-11-12T13:17:13.606Z,100.00
2022-11-12T13:19:58.301Z,100.00
2022-11-12T13:22:25.011Z,100.00
2022-11-12T13:25:19.129Z,100.00
2022-11-12T13:27:45.977Z,100.00
2022-11-12T13:30:18.640Z,100.00
2022-11-12T13:32:48.120Z,100.00
2022-11-12T13:35:23.370Z,100.00
2022-11-12T13:38:04.287Z,100.00
2022-11-12T13:40:33.826Z,100.00
2022-11-12T13:43:08.933Z,100.00
2022-11-12T13:45:48.274Z,100.00
2022-11-12T13:48:29.839Z,100.00
2022-11-12T13:51:01.739Z,100.00
2022-11-12T13:53:32.084Z,100.00
2022-11-12T13:55:59.688Z,100.00
2022-11-12T13:58:29.603Z,100.00
2022-11-12T14:01:01.825Z,100.00
2022-11-12T14:03:35.088Z,100.00
2022-11-12T14:06:27.087Z,100.00
2022-11-12T14:09:24.184Z,100.00
2022-11-12T14:12:24.551Z,100.00
2022-11-12T14:15:32.055Z,100.00
2022-11-12T14:18:07.928Z,100.00
2022-11-12T14:20:37.135Z,100.00
2022-11-12T14:23:12.503Z,100.00
2022-11-12T14:25:55.545Z,100.00
2022-11-12T14:28:26.616Z,100.00
2022-11-12T14:30:54.188Z,100.00
2022-11-12T14:33:23.470Z,100.00
2022-11-12T14:35:52.300Z,100.00
2022-11-12T14:38:25.435Z,100.00
2022-11-12T14:40:57.036Z,100.00
2022-11-12T14:43:35.488Z,100.00
2022-11-12T14:46:04.255Z,100.00
2022-11-12T14:48:49.449Z,100.00
2022-11-12T14:51:17.087Z,100.00
2022-11-12T14:53:49.667Z,100.00
2022-11-12T14:56:35.802Z,100.00
2022-11-12T14:59:04.121Z,100.00
2022-11-12T15:04:26.003Z,100.00
2022-11-12T15:06:55.885Z,100.00
2022-11-12T15:09:37.332Z,100.00
2022-11-12T15:12:21.047Z,100.00
2022-11-12T15:14:47.959Z,100.00
2022-11-12T15:17:32.205Z,100.00
2022-11-12T15:20:04.696Z,100.00
2022-11-12T15:22:34.572Z,100.00
2022-11-12T15:25:24.874Z,100.00
2022-11-12T15:27:52.096Z,100.00
2022-11-12T15:30:30.679Z,100.00
2022-11-12T15:33:19.333Z,100.00
2022-11-12T15:35:55.348Z,100.00
2022-11-12T15:38:36.348Z,100.00
2022-11-12T15:41:04.624Z,100.00
2022-11-12T15:43:42.824Z,100.00
2022-11-12T15:46:17.367Z,100.00
2022-11-12T15:48:44.488Z,100.00
2022-11-12T15:51:12.090Z,100.00
2022-11-12T15:53:38.933Z,100.00
2022-11-12T15:56:08.583Z,100.00
2022-11-12T15:58:37.612Z,100.00
2022-11-12T16:01:05.739Z,100.00
2022-11-12T16:03:33.062Z,100.00
2022-11-12T16:06:03.875Z,100.00
2022-11-12T16:08:34.078Z,100.00
2022-11-12T16:11:00.831Z,100.00
2022-11-12T16:13:31.211Z,100.00
2022-11-12T16:15:58.102Z,100.00
2022-11-12T16:18:24.833Z,100.00
2022-11-12T16:20:51.646Z,100.00
2022-11-12T16:23:18.412Z,100.00
2022-11-12T16:25:45.556Z,100.00
2022-11-12T16:28:15.926Z,100.00
2022-11-12T16:30:44.353Z,100.00
2022-11-12T16:33:12.853Z,100.00
2022-11-12T16:35:40.524Z,100.00
2022-11-12T16:38:14.679Z,100.00
2022-11-12T16:40:42.360Z,100.00
2022-11-12T16:43:09.180Z,100.00
2022-11-12T16:45:39.277Z,100.00
2022-11-12T16:48:21.521Z,100.00
2022-11-12T16:50:48.480Z,100.00
2022-11-12T16:53:15.224Z,100.00
2022-11-12T16:55:42.541Z,100.00
2022-11-12T16:58:14.265Z,100.00
2022-11-12T17:00:44.200Z,100.00
2022-11-12T17:03:13.055Z,98.98
2022-11-12T17:05:39.846Z,98.12
2022-11-12T17:08:06.596Z,96.90
2022-11-12T17:10:33.348Z,96.25
2022-11-12T17:13:00.047Z,95.91
2022-11-12T17:15:26.819Z,95.16
2022-11-12T17:17:54.471Z,94.85
2022-11-12T17:20:21.268Z,94.59
2022-11-12T17:22:47.984Z,94.81
2022-11-12T17:25:14.811Z,94.76
2022-11-12T17:27:41.535Z,94.80
2022-11-12T17:30:08.630Z,94.71
2022-11-12T17:32:35.383Z,95.21
2022-11-12T17:35:02.307Z,94.88
2022-11-12T17:37:29.989Z,94.91
2022-11-12T17:39:56.782Z,94.35
2022-11-12T17:42:23.558Z,94.48
2022-11-12T17:44:50.320Z,94.53
2022-11-12T17:47:17.106Z,94.06
2022-11-12T17:49:43.911Z,93.41
2022-11-12T17:52:10.603Z,93.72
2022-11-12T17:54:37.383Z,93.36
2022-11-12T17:57:04.189Z,93.08
2022-11-12T17:59:30.981Z,93.10
2022-11-12T18:01:57.796Z,92.66
2022-11-12T18:04:25.801Z,92.41
2022-11-12T18:06:55.445Z,92.63
2022-11-12T18:09:22.678Z,92.30
2022-11-12T18:11:54.707Z,91.53
2022-11-12T18:14:23.095Z,91.48
2022-11-12T18:16:50.491Z,90.66
2022-11-12T18:19:17.545Z,89.87
2022-11-12T18:21:44.292Z,89.87
2022-11-12T18:24:15.751Z,89.45
2022-11-12T18:26:44.209Z,89.65
2022-11-12T18:29:12.577Z,89.61
2022-11-12T18:31:40.622Z,89.29
2022-11-12T18:34:10.900Z,88.37
2022-11-12T18:36:37.678Z,87.31
2022-11-12T18:39:04.892Z,87.07
2022-11-12T18:41:33.345Z,87.29
2022-11-12T18:44:01.261Z,86.98
2022-11-12T18:46:28.047Z,86.18
2022-11-12T18:48:55.197Z,85.69
2022-11-12T18:51:21.968Z,85.74
2022-11-12T18:53:48.816Z,85.28
2022-11-12T18:56:18.185Z,85.31
2022-11-12T18:58:45.127Z,85.10
2022-11-12T19:01:20.571Z,84.61
2022-11-12T19:03:48.481Z,84.69
2022-11-12T19:06:16.711Z,84.83
2022-11-12T19:08:43.689Z,84.55
2022-11-12T19:11:16.240Z,84.54
2022-11-12T19:13:43.232Z,84.38
2022-11-12T19:16:17.081Z,84.79
2022-11-12T19:18:44.929Z,85.00
2022-11-12T19:21:20.624Z,85.32
2022-11-12T19:23:51.384Z,85.58
2022-11-12T19:26:21.300Z,85.05
2022-11-12T19:28:48.111Z,84.03
2022-11-12T19:31:19.335Z,84.44
2022-11-12T19:33:47.340Z,84.54
2022-11-12T19:36:17.148Z,84.61
2022-11-12T19:38:44.155Z,84.73
2022-11-12T19:41:19.008Z,84.18
2022-11-12T19:43:46.454Z,84.29
2022-11-12T19:46:13.664Z,84.32
2022-11-12T19:48:40.422Z,83.98
2022-11-12T19:51:09.084Z,83.54
2022-11-12T19:53:41.621Z,83.39
2022-11-12T19:56:08.662Z,82.90
2022-11-12T19:58:35.457Z,83.17
2022-11-12T20:01:10.303Z,83.35
2022-11-12T20:03:37.855Z,83.13
2022-11-12T20:06:13.327Z,82.10
2022-11-12T20:08:40.141Z,81.76
2022-11-12T20:11:06.963Z,81.86
2022-11-12T20:13:34.132Z,81.18
2022-11-12T20:16:09.070Z,80.98
2022-11-12T20:18:35.869Z,80.89
2022-11-12T20:21:06.463Z,81.06
2022-11-12T20:23:36.192Z,80.87
2022-11-12T20:26:09.838Z,80.40
2022-11-12T20:28:39.433Z,80.53
2022-11-12T20:31:09.763Z,80.01
2022-11-12T20:33:41.855Z,79.99
2022-11-12T20:36:21.080Z,79.86
2022-11-12T20:38:49.990Z,79.62
2022-11-12T20:41:19.510Z,80.25
2022-11-12T20:43:46.408Z,79.81
2022-11-12T20:46:14.572Z,80.08
2022-11-12T20:48:43.568Z,79.82
2022-11-12T20:51:24.513Z,79.54
2022-11-12T20:53:58.914Z,80.14
2022-11-12T20:56:28.613Z,79.52
2022-11-12T20:58:55.752Z,79.53
2022-11-12T21:01:24.943Z,79.93
2022-11-12T21:03:52.118Z,79.31
2022-11-12T21:06:22.423Z,79.76
2022-11-12T21:08:49.469Z,79.44
2022-11-12T21:11:19.066Z,79.63
2022-11-12T21:13:45.863Z,79.46
2022-11-12T21:16:13.575Z,79.69
2022-11-12T21:18:40.729Z,79.72
2022-11-12T21:21:12.991Z,79.86
2022-11-12T21:23:46.184Z,79.74
2022-11-12T21:26:18.443Z,78.53
2022-11-12T21:28:53.228Z,78.86
2022-11-12T21:31:24.986Z,78.90
2022-11-12T21:34:00.603Z,78.88
2022-11-12T21:36:31.323Z,78.92
2022-11-12T21:38:58.428Z,78.46
2022-11-12T21:41:27.375Z,78.72
2022-11-12T21:43:55.488Z,79.02
2022-11-12T21:46:27.463Z,78.43
2022-11-12T21:48:55.848Z,78.35
2022-11-12T21:51:28.163Z,78.45
2022-11-12T21:54:03.872Z,77.49
2022-11-12T21:56:33.500Z,77.80
2022-11-12T21:59:01.590Z,76.92
2022-11-12T22:01:30.528Z,77.04
2022-11-12T22:03:59.488Z,77.11
2022-11-12T22:06:30.226Z,77.04
2022-11-12T22:08:58.244Z,77.13
2022-11-12T22:11:26.734Z,76.82
2022-11-12T22:13:53.820Z,76.97
2022-11-12T22:16:23.397Z,76.55
2022-11-12T22:18:52.893Z,77.15
2022-11-12T22:21:35.443Z,76.52
2022-11-12T22:24:06.303Z,75.59
2022-11-12T22:26:33.046Z,75.55
2022-11-12T22:29:00.020Z,75.96
2022-11-12T22:31:31.954Z,76.38
2022-11-12T22:33:59.388Z,76.11
2022-11-12T22:36:28.775Z,75.61
2022-11-12T22:38:56.122Z,74.65
2022-11-12T22:41:28.029Z,74.61
2022-11-12T22:44:00.236Z,74.07
2022-11-12T22:46:36.144Z,74.29
2022-11-12T22:49:03.914Z,70.31
2022-11-12T22:51:33.147Z,71.14
2022-11-12T22:54:06.065Z,69.04
2022-11-12T22:56:36.005Z,68.85
2022-11-12T22:59:06.159Z,67.35
2022-11-12T23:01:34.996Z,66.71
2022-11-12T23:04:05.102Z,66.79
2022-11-12T23:06:31.940Z,67.19
2022-11-12T23:08:59.696Z,66.47
2022-11-12T23:11:26.779Z,66.81
2022-11-12T23:13:54.837Z,66.39
2022-11-12T23:16:24.958Z,66.47
2022-11-12T23:18:53.135Z,65.98
2022-11-12T23:21:23.499Z,65.82
2022-11-12T23:23:50.601Z,65.01
2022-11-12T23:26:23.840Z,64.65
2022-11-12T23:28:51.110Z,63.33
2022-11-12T23:31:21.325Z,63.46
2022-11-12T23:33:50.454Z,62.96
2022-11-12T23:36:17.724Z,62.64
2022-11-12T23:38:44.569Z,62.88
2022-11-12T23:41:13.356Z,62.47
2022-11-12T23:43:40.140Z,62.79
2022-11-12T23:46:07.013Z,63.29
2022-11-12T23:48:33.928Z,64.12
2022-11-12T23:51:06.450Z,63.65
2022-11-12T23:53:34.567Z,64.56
2022-11-12T23:56:01.950Z,63.81
2022-11-12T23:58:29.406Z,64.20
